Yardley, Pennsylvania
Current Conditions -  °F | °C
As of 5:53 AM on Thursday 23 Oct 2014 (Local Time) from KTTN Reporting Station
Light Rain Light Rain  
Wind Chill: 51°   Ceiling: 2400
Heat Index: 51°   Visibility: 10mi
Dew Point: 46°   Wind: 13mph
Humidity: 83%   Direction: 350°N
Pressure: 29.74"   Gusts: NA
Location:  40.1994°N, 74.8145°W
Report Text: KTTN 230953Z 35011KT 10SM -RA OVC024 11/08 A2974 RMK AO2 RAB28 SLP064 P0000 T01060078
Loading
Personal Weather Stations






























Interactive Weather Map
Tropical Storm Tracking
New forecast layout! Learn more

10-Day Weather Forecast

Advertisements
Track Severe Weather on mobile